createdAt,value
2018-06-17T00:02:21.010Z,50.00
2018-06-17T00:04:49.099Z,50.00
2018-06-17T00:07:17.214Z,49.90
2018-06-17T00:09:45.314Z,50.00
2018-06-17T00:12:13.355Z,49.90
2018-06-17T00:14:41.418Z,49.80
2018-06-17T00:17:09.762Z,49.90
2018-06-17T00:19:37.833Z,49.90
2018-06-17T00:22:05.921Z,50.00
2018-06-17T00:24:33.990Z,49.90
2018-06-17T00:27:02.067Z,50.00
2018-06-17T00:29:30.147Z,50.00
2018-06-17T00:31:58.218Z,50.10
2018-06-17T00:34:26.274Z,50.20
2018-06-17T00:36:54.351Z,50.00
2018-06-17T00:39:22.419Z,50.00
2018-06-17T00:41:50.495Z,50.00
2018-06-17T00:44:18.562Z,50.10
2018-06-17T00:46:46.634Z,50.10
2018-06-17T00:49:14.711Z,50.10
2018-06-17T00:51:42.790Z,50.10
2018-06-17T00:54:10.857Z,50.10
2018-06-17T00:56:38.922Z,50.00
2018-06-17T00:59:06.990Z,50.00
2018-06-17T01:01:35.168Z,50.00
2018-06-17T01:04:03.229Z,50.00
2018-06-17T01:06:31.298Z,50.00
2018-06-17T01:08:59.354Z,50.00
2018-06-17T01:11:27.409Z,50.00
2018-06-17T01:13:55.726Z,49.90
2018-06-17T01:16:24.070Z,50.10
2018-06-17T01:21:20.822Z,50.10
2018-06-17T01:23:48.883Z,50.10
2018-06-17T01:26:17.230Z,50.00
2018-06-17T01:28:45.293Z,50.00
2018-06-17T01:31:13.383Z,49.90
2018-06-17T01:33:41.458Z,50.00
2018-06-17T01:36:09.543Z,50.00
2018-06-17T01:38:37.611Z,50.00
2018-06-17T01:41:05.690Z,50.00
2018-06-17T01:43:33.759Z,50.00
2018-06-17T01:46:01.842Z,50.10
2018-06-17T01:48:29.903Z,50.50
2018-06-17T01:50:57.995Z,50.10
2018-06-17T01:53:26.064Z,50.10
2018-06-17T01:55:54.427Z,50.00
2018-06-17T02:00:50.556Z,50.00
2018-06-17T02:03:24.121Z,50.20
2018-06-17T02:05:57.670Z,49.90
2018-06-17T02:08:31.180Z,49.90
2018-06-17T02:11:04.535Z,49.90
2018-06-17T02:13:32.611Z,49.90
2018-06-17T02:16:00.679Z,49.90
2018-06-17T02:18:28.738Z,49.90
2018-06-17T02:20:57.054Z,50.00
2018-06-17T02:23:25.414Z,50.00
2018-06-17T02:25:53.480Z,50.00
2018-06-17T02:28:21.530Z,50.00
2018-06-17T02:30:49.819Z,50.00
2018-06-17T02:33:17.891Z,50.00
2018-06-17T02:35:45.946Z,50.10
2018-06-17T02:38:13.999Z,50.20
2018-06-17T02:40:42.055Z,50.20
2018-06-17T02:43:10.363Z,50.10
2018-06-17T02:45:43.914Z,50.10
2018-06-17T02:48:17.483Z,50.10
2018-06-17T02:54:24.338Z,50.20
2018-06-17T02:56:52.614Z,50.20
2018-06-17T02:59:20.689Z,50.20
2018-06-17T03:01:48.724Z,50.20
2018-06-17T03:04:16.799Z,50.30
2018-06-17T03:06:44.867Z,50.30
2018-06-17T03:09:12.935Z,50.30
2018-06-17T03:11:41.006Z,50.30
2018-06-17T03:14:09.498Z,50.40
2018-06-17T03:16:38.125Z,50.30
2018-06-17T03:19:06.402Z,50.40
2018-06-17T03:21:34.466Z,50.30
2018-06-17T03:24:02.546Z,50.30
2018-06-17T03:26:36.239Z,50.30
2018-06-17T03:29:09.637Z,50.30
2018-06-17T03:31:43.246Z,50.40
2018-06-17T03:34:11.303Z,50.30
2018-06-17T03:36:39.351Z,50.30
2018-06-17T03:39:07.861Z,50.30
2018-06-17T03:41:35.915Z,50.40
2018-06-17T03:44:03.981Z,50.30
2018-06-17T03:46:32.047Z,50.30
2018-06-17T03:49:00.115Z,50.20
2018-06-17T03:51:28.168Z,50.20
2018-06-17T03:53:56.313Z,50.20
2018-06-17T03:56:24.314Z,50.10
2018-06-17T03:58:52.394Z,50.20
2018-06-17T04:01:20.462Z,50.20
2018-06-17T04:03:48.526Z,50.20
2018-06-17T04:06:16.766Z,50.20
2018-06-17T04:08:44.911Z,50.10
2018-06-17T04:11:13.447Z,50.20
2018-06-17T04:13:41.490Z,50.10
2018-06-17T04:16:09.538Z,50.00
2018-06-17T04:18:37.599Z,50.10
2018-06-17T04:21:05.803Z,50.00
2018-06-17T04:26:01.728Z,50.00
2018-06-17T04:28:29.799Z,50.30
2018-06-17T04:30:57.862Z,50.40
2018-06-17T04:33:25.935Z,50.00
2018-06-17T04:35:54.298Z,49.80
2018-06-17T04:38:22.371Z,50.60
2018-06-17T04:40:50.646Z,50.00
2018-06-17T04:43:18.734Z,50.00
2018-06-17T04:45:47.046Z,50.10
2018-06-17T04:48:15.118Z,50.10
2018-06-17T04:50:43.194Z,50.10
2018-06-17T04:53:11.256Z,50.10
2018-06-17T04:55:39.634Z,50.20
2018-06-17T04:58:07.704Z,50.20
2018-06-17T05:00:35.772Z,50.20
2018-06-17T05:03:03.843Z,50.10
2018-06-17T05:05:32.017Z,50.10
2018-06-17T05:08:00.076Z,50.10
2018-06-17T05:10:28.147Z,50.10
2018-06-17T05:12:56.219Z,50.10
2018-06-17T05:15:24.319Z,50.00
2018-06-17T05:17:52.387Z,50.00
2018-06-17T05:20:20.467Z,49.90
2018-06-17T05:22:48.555Z,49.80
2018-06-17T05:25:16.623Z,49.90
2018-06-17T05:27:44.978Z,49.90
2018-06-17T05:30:13.046Z,49.90
2018-06-17T05:32:41.102Z,49.90
2018-06-17T05:35:09.163Z,49.90
2018-06-17T05:37:37.218Z,49.80
2018-06-17T05:40:05.304Z,49.80
2018-06-17T05:42:33.360Z,49.80
2018-06-17T05:45:01.447Z,49.80
2018-06-17T05:47:29.576Z,49.70
2018-06-17T05:49:57.578Z,49.80
2018-06-17T05:52:25.638Z,49.70
2018-06-17T05:54:53.690Z,49.50
2018-06-17T05:57:21.746Z,49.50
2018-06-17T05:59:49.818Z,49.40
2018-06-17T06:02:18.175Z,49.40
2018-06-17T06:04:46.246Z,49.40
2018-06-17T06:07:14.298Z,49.30
2018-06-17T06:09:42.451Z,49.20
2018-06-17T06:12:10.568Z,49.10
2018-06-17T06:14:38.570Z,49.10
2018-06-17T06:17:06.627Z,49.00
2018-06-17T06:19:34.714Z,49.00
2018-06-17T06:22:02.810Z,48.90
2018-06-17T06:24:30.843Z,48.80
2018-06-17T06:26:58.914Z,48.80
2018-06-17T06:29:26.995Z,48.60
2018-06-17T06:34:23.119Z,48.40
2018-06-17T06:36:51.223Z,48.20
2018-06-17T06:39:19.259Z,48.20
2018-06-17T06:41:47.343Z,48.20
2018-06-17T06:44:15.406Z,48.40
2018-06-17T06:46:43.755Z,47.90
2018-06-17T06:49:12.101Z,47.80
2018-06-17T06:51:40.193Z,48.30
2018-06-17T06:54:08.266Z,47.90
2018-06-17T06:56:36.346Z,48.80
2018-06-17T06:59:04.418Z,48.10
2018-06-17T07:01:43.991Z,47.50
2018-06-17T07:04:23.583Z,46.90
2018-06-17T07:07:03.102Z,46.70
2018-06-17T07:09:42.739Z,46.20
2018-06-17T07:12:10.923Z,46.50
2018-06-17T07:14:38.991Z,45.70
2018-06-17T07:17:18.563Z,45.90
2018-06-17T07:19:46.667Z,45.30
2018-06-17T07:22:14.738Z,45.10
2018-06-17T07:24:43.249Z,44.80
2018-06-17T07:27:22.902Z,44.50
2018-06-17T07:29:50.974Z,44.40
2018-06-17T07:32:19.113Z,44.80
2018-06-17T07:34:47.190Z,44.60
2018-06-17T07:37:15.262Z,44.70
2018-06-17T07:40:50.162Z,44.70
2018-06-17T07:43:18.235Z,44.70
2018-06-17T07:45:46.343Z,44.60
2018-06-17T07:49:24.543Z,44.60
2018-06-17T07:52:04.251Z,44.40
2018-06-17T07:54:32.587Z,45.80
2018-06-17T07:57:01.519Z,45.80
2018-06-17T07:59:29.648Z,45.20
2018-06-17T08:01:57.768Z,45.40
2018-06-17T08:04:26.039Z,45.60
2018-06-17T08:06:54.311Z,45.60
2018-06-17T08:09:22.594Z,45.30
2018-06-17T08:11:50.659Z,45.60
2018-06-17T08:14:18.735Z,45.50
2018-06-17T08:16:46.795Z,45.50
2018-06-17T08:19:14.873Z,45.20
2018-06-17T08:21:42.947Z,44.90
2018-06-17T08:24:11.120Z,45.70
2018-06-17T08:26:39.195Z,45.70
2018-06-17T08:29:07.368Z,46.00
2018-06-17T08:31:35.484Z,45.80
2018-06-17T08:34:03.566Z,45.50
2018-06-17T08:36:31.630Z,45.00
2018-06-17T08:38:59.706Z,45.10
2018-06-17T08:41:28.015Z,45.40
2018-06-17T08:43:56.096Z,45.70
2018-06-17T08:46:24.191Z,45.70
2018-06-17T08:48:52.278Z,45.30
2018-06-17T08:51:20.342Z,45.50
2018-06-17T08:53:48.417Z,45.50
2018-06-17T08:56:16.482Z,45.90
2018-06-17T08:58:44.569Z,45.20
2018-06-17T09:01:12.626Z,45.20
2018-06-17T09:03:40.704Z,45.30
2018-06-17T09:06:08.781Z,45.90
2018-06-17T09:08:36.858Z,46.00
2018-06-17T09:11:04.931Z,46.20
2018-06-17T09:13:33.135Z,46.60
2018-06-17T09:16:01.307Z,47.10
2018-06-17T09:18:29.383Z,46.80
2018-06-17T09:20:57.514Z,46.90
2018-06-17T09:23:25.542Z,47.20
2018-06-17T09:25:53.691Z,47.70
2018-06-17T09:28:21.762Z,47.30
2018-06-17T09:30:49.839Z,47.40
2018-06-17T09:33:18.185Z,47.50
2018-06-17T09:35:46.263Z,47.50
2018-06-17T09:38:14.335Z,47.60
2018-06-17T09:40:42.415Z,47.70
2018-06-17T09:43:10.486Z,48.00
2018-06-17T09:45:38.630Z,48.90
2018-06-17T09:48:06.690Z,49.40
2018-06-17T09:50:34.763Z,48.90
2018-06-17T09:53:02.835Z,48.70
2018-06-17T09:55:30.905Z,48.70
2018-06-17T09:57:58.978Z,48.70
2018-06-17T10:00:27.053Z,48.90
2018-06-17T10:02:56.175Z,49.30
2018-06-17T10:05:24.765Z,49.20
2018-06-17T10:07:52.833Z,49.30
2018-06-17T10:10:54.087Z,49.30
2018-06-17T10:13:29.935Z,49.40
2018-06-17T10:15:58.019Z,49.50
2018-06-17T10:18:26.687Z,49.70
2018-06-17T10:20:54.822Z,49.70
2018-06-17T10:23:23.038Z,49.90
2018-06-17T10:25:51.265Z,49.90
2018-06-17T10:28:19.899Z,50.00
2018-06-17T10:30:49.300Z,50.00
2018-06-17T10:33:17.351Z,50.10
2018-06-17T10:35:45.948Z,50.10
2018-06-17T10:38:14.019Z,50.30
2018-06-17T10:40:42.083Z,50.40
2018-06-17T10:43:18.154Z,50.50
2018-06-17T10:45:46.520Z,50.70
2018-06-17T10:48:15.307Z,50.80
2018-06-17T10:50:43.635Z,50.80
2018-06-17T10:53:11.694Z,50.90
2018-06-17T10:55:39.789Z,51.00
2018-06-17T10:58:07.861Z,51.00
2018-06-17T11:00:35.932Z,51.70
2018-06-17T11:03:04.001Z,51.00
2018-06-17T11:05:32.546Z,51.10
2018-06-17T11:08:00.558Z,51.30
2018-06-17T11:10:28.626Z,51.20
2018-06-17T11:12:56.689Z,51.30
2018-06-17T11:15:24.862Z,51.00
2018-06-17T11:17:52.950Z,49.70
2018-06-17T11:20:21.023Z,47.00
2018-06-17T11:22:49.111Z,46.10
2018-06-17T11:25:18.234Z,45.70
2018-06-17T11:27:46.458Z,45.20
2018-06-17T11:30:14.522Z,45.50
2018-06-17T11:32:42.595Z,46.10
2018-06-17T11:35:10.666Z,46.50
2018-06-17T11:37:38.843Z,46.50
2018-06-17T11:40:06.959Z,46.90
2018-06-17T11:42:35.036Z,47.80
2018-06-17T11:45:03.103Z,47.20
2018-06-17T11:47:31.167Z,47.40
2018-06-17T11:49:59.242Z,47.90
2018-06-17T11:52:28.287Z,48.50
2018-06-17T11:54:57.334Z,49.00
2018-06-17T11:57:26.625Z,48.60
2018-06-17T11:59:54.727Z,49.00
2018-06-17T12:02:22.806Z,49.30
2018-06-17T12:04:50.890Z,48.80
2018-06-17T12:07:18.970Z,48.60
2018-06-17T12:09:47.055Z,47.60
2018-06-17T12:12:15.127Z,47.20
2018-06-17T12:14:43.247Z,46.60
2018-06-17T12:17:11.267Z,46.20
2018-06-17T12:19:39.383Z,45.30
2018-06-17T12:22:07.462Z,45.20
2018-06-17T12:24:35.529Z,45.50
2018-06-17T12:27:03.614Z,45.20
2018-06-17T12:29:31.681Z,45.30
2018-06-17T12:31:59.768Z,45.00
2018-06-17T12:34:27.834Z,44.50
2018-06-17T12:36:55.919Z,44.60
2018-06-17T12:39:23.998Z,44.40
2018-06-17T12:41:52.100Z,43.90
2018-06-17T12:44:20.183Z,43.50
2018-06-17T12:46:48.266Z,43.50
2018-06-17T12:49:16.342Z,44.20
2018-06-17T12:51:44.421Z,44.70
2018-06-17T12:54:12.498Z,44.60
2018-06-17T12:56:40.579Z,44.60
2018-06-17T12:59:08.728Z,44.80
2018-06-17T13:01:36.811Z,44.40
2018-06-17T13:04:05.266Z,43.90
2018-06-17T13:06:33.347Z,43.70
2018-06-17T13:09:01.419Z,43.90
2018-06-17T13:11:29.591Z,44.20
2018-06-17T13:13:57.663Z,44.50
2018-06-17T13:16:25.734Z,45.00
2018-06-17T13:18:53.806Z,45.60
2018-06-17T13:21:21.890Z,45.90
2018-06-17T13:23:49.971Z,45.50
2018-06-17T13:26:18.047Z,45.00
2018-06-17T13:28:46.110Z,44.70
2018-06-17T13:31:14.184Z,44.90
2018-06-17T13:33:42.273Z,45.30
2018-06-17T13:36:10.340Z,45.40
2018-06-17T13:38:38.690Z,45.90
2018-06-17T13:41:06.758Z,45.30
2018-06-17T13:43:34.834Z,45.80
2018-06-17T13:46:02.898Z,45.70
2018-06-17T13:48:31.191Z,45.60
2018-06-17T13:50:59.274Z,45.60
2018-06-17T13:53:27.352Z,46.30
2018-06-17T13:55:55.434Z,45.90
2018-06-17T13:58:23.487Z,46.20
2018-06-17T14:00:51.534Z,46.60
2018-06-17T14:03:19.671Z,46.50
2018-06-17T14:05:47.743Z,46.10
2018-06-17T14:08:15.805Z,46.10
2018-06-17T14:10:43.861Z,46.50
2018-06-17T14:13:12.170Z,46.70
2018-06-17T14:15:40.242Z,46.80
2018-06-17T14:18:08.311Z,47.10
2018-06-17T14:20:36.354Z,47.10
2018-06-17T14:23:04.414Z,47.30
2018-06-17T14:25:32.474Z,47.40
2018-06-17T14:28:00.531Z,48.00
2018-06-17T14:30:28.591Z,48.00
2018-06-17T14:32:56.650Z,48.10
2018-06-17T14:35:24.706Z,48.30
2018-06-17T14:37:52.855Z,48.30
2018-06-17T14:40:20.950Z,48.40
2018-06-17T14:42:54.490Z,48.50
2018-06-17T14:45:28.263Z,48.50
2018-06-17T14:48:01.953Z,48.60
2018-06-17T14:50:35.654Z,48.60
2018-06-17T14:53:06.511Z,48.70
2018-06-17T14:55:34.667Z,48.70
2018-06-17T14:58:03.531Z,48.90
2018-06-17T15:00:31.590Z,48.70
2018-06-17T15:02:59.650Z,48.60
2018-06-17T15:05:28.432Z,48.50
2018-06-17T15:07:56.575Z,48.10
2018-06-17T15:10:24.897Z,48.30
2018-06-17T15:12:52.910Z,48.50
2018-06-17T15:15:21.047Z,48.80
2018-06-17T15:17:49.098Z,48.80
2018-06-17T15:20:17.170Z,48.90
2018-06-17T15:22:45.233Z,49.00
2018-06-17T15:25:13.311Z,48.60
2018-06-17T15:27:41.377Z,48.60
2018-06-17T15:30:09.484Z,49.00
2018-06-17T15:32:43.159Z,49.70
2018-06-17T15:35:16.552Z,49.20
2018-06-17T15:37:49.923Z,49.40
2018-06-17T15:40:20.043Z,49.40
2018-06-17T15:42:48.111Z,49.50
2018-06-17T15:45:16.186Z,49.50
2018-06-17T15:47:44.250Z,49.40
2018-06-17T15:50:12.327Z,49.50
2018-06-17T15:52:40.396Z,49.50
2018-06-17T15:55:08.486Z,49.50
2018-06-17T15:57:36.555Z,49.50
2018-06-17T16:00:04.999Z,49.50
2018-06-17T16:02:33.064Z,49.50
2018-06-17T16:05:01.140Z,49.40
2018-06-17T16:07:29.210Z,49.40
2018-06-17T16:09:57.290Z,49.50
2018-06-17T16:12:30.815Z,49.40
2018-06-17T16:15:04.443Z,49.40
2018-06-17T16:17:37.946Z,49.40
2018-06-17T16:20:11.475Z,49.50
2018-06-17T16:22:39.544Z,49.30
2018-06-17T16:25:07.630Z,49.30
2018-06-17T16:27:35.698Z,49.30
2018-06-17T16:30:03.811Z,49.30
2018-06-17T16:32:31.880Z,49.30
2018-06-17T16:34:59.950Z,49.20
2018-06-17T16:37:28.025Z,49.30
2018-06-17T16:39:56.121Z,49.20
2018-06-17T16:42:24.190Z,49.20
2018-06-17T16:44:52.259Z,49.20
2018-06-17T16:47:20.330Z,49.20
2018-06-17T16:49:48.398Z,49.20
2018-06-17T16:52:22.012Z,49.20
2018-06-17T16:54:55.462Z,49.10
2018-06-17T16:57:28.995Z,49.10
2018-06-17T17:00:00.977Z,49.10
2018-06-17T17:02:29.068Z,49.10
2018-06-17T17:04:57.635Z,49.10
2018-06-17T17:07:25.711Z,49.10
2018-06-17T17:09:53.810Z,49.00
2018-06-17T17:12:21.854Z,49.10
2018-06-17T17:14:49.930Z,49.00
2018-06-17T17:17:17.994Z,49.00
2018-06-17T17:19:46.066Z,49.10
2018-06-17T17:22:14.142Z,49.00
2018-06-17T17:24:42.215Z,49.00
2018-06-17T17:27:10.294Z,49.00
2018-06-17T17:29:38.354Z,49.00
2018-06-17T17:32:11.990Z,49.00
2018-06-17T17:34:45.604Z,48.90
2018-06-17T17:37:19.179Z,48.90
2018-06-17T17:39:52.782Z,48.90
2018-06-17T17:42:20.842Z,48.90
2018-06-17T17:44:54.686Z,49.00
2018-06-17T17:47:25.155Z,49.00
2018-06-17T17:49:53.928Z,48.90
2018-06-17T17:52:22.045Z,49.50
2018-06-17T17:54:50.146Z,48.90
2018-06-17T17:57:18.231Z,48.80
2018-06-17T17:59:46.720Z,48.90
2018-06-17T18:02:14.806Z,48.80
2018-06-17T18:04:42.877Z,48.70
2018-06-17T18:07:10.982Z,48.80
2018-06-17T18:09:39.041Z,48.60
2018-06-17T18:12:07.128Z,48.70
2018-06-17T18:14:35.185Z,48.70
2018-06-17T18:17:03.267Z,48.70
2018-06-17T18:19:31.334Z,48.80
2018-06-17T18:21:59.408Z,49.30
2018-06-17T18:24:27.734Z,48.60
2018-06-17T18:27:01.395Z,48.60
2018-06-17T18:29:34.962Z,48.70
2018-06-17T18:32:08.463Z,48.60
2018-06-17T18:34:41.974Z,48.60
2018-06-17T18:37:10.031Z,48.70
2018-06-17T18:39:38.383Z,48.60
2018-06-17T18:42:06.918Z,48.60
2018-06-17T18:44:35.208Z,48.60
2018-06-17T18:47:03.794Z,48.50
2018-06-17T18:49:32.151Z,48.50
2018-06-17T18:52:00.203Z,48.50
2018-06-17T18:54:28.522Z,48.40
2018-06-17T18:56:56.574Z,48.50
2018-06-17T18:59:24.631Z,48.50
2018-06-17T19:01:52.708Z,48.60
2018-06-17T19:04:20.766Z,48.60
2018-06-17T19:06:48.834Z,48.60
2018-06-17T19:09:22.452Z,48.60
2018-06-17T19:11:56.431Z,48.60
2018-06-17T19:14:30.064Z,48.70
2018-06-17T19:18:06.615Z,48.70
2018-06-17T19:20:34.679Z,48.70
2018-06-17T19:23:02.738Z,48.70
2018-06-17T19:25:30.823Z,48.80
2018-06-17T19:27:58.918Z,48.90
2018-06-17T19:30:26.963Z,48.90
2018-06-17T19:32:55.022Z,48.90
2018-06-17T19:35:23.078Z,48.80
2018-06-17T19:37:51.386Z,48.90
2018-06-17T19:40:19.379Z,49.10
2018-06-17T19:42:47.696Z,48.90
2018-06-17T19:45:15.750Z,48.80
2018-06-17T19:47:43.826Z,48.60
2018-06-17T19:50:17.364Z,48.70
2018-06-17T19:52:50.985Z,48.80
2018-06-17T19:55:24.789Z,48.80
2018-06-17T19:57:58.491Z,48.80
2018-06-17T20:00:32.777Z,48.90
2018-06-17T20:03:01.735Z,48.90
2018-06-17T20:05:29.795Z,48.90
2018-06-17T20:07:57.846Z,48.80
2018-06-17T20:10:25.935Z,48.90
2018-06-17T20:12:54.126Z,48.80
2018-06-17T20:15:22.192Z,48.90
2018-06-17T20:17:50.271Z,48.90
2018-06-17T20:20:18.356Z,48.90
2018-06-17T20:22:46.455Z,48.80
2018-06-17T20:25:15.658Z,48.70
2018-06-17T20:27:43.723Z,48.70
2018-06-17T20:30:11.883Z,48.70
2018-06-17T20:32:45.374Z,48.70
2018-06-17T20:35:18.846Z,48.70
2018-06-17T20:37:52.479Z,48.70
2018-06-17T20:40:26.106Z,48.60
2018-06-17T20:42:59.658Z,48.60
2018-06-17T20:45:27.722Z,48.60
2018-06-17T20:47:55.797Z,48.60
2018-06-17T20:50:23.960Z,49.30
2018-06-17T20:52:52.022Z,48.40
2018-06-17T20:55:20.307Z,48.40
2018-06-17T20:57:48.779Z,48.40
2018-06-17T21:00:16.845Z,48.40
2018-06-17T21:02:44.917Z,48.40
2018-06-17T21:05:13.255Z,48.40
2018-06-17T21:07:41.326Z,48.20
2018-06-17T21:10:09.447Z,48.20
2018-06-17T21:12:37.791Z,48.10
2018-06-17T21:15:11.390Z,48.20
2018-06-17T21:17:39.487Z,48.20
2018-06-17T21:20:13.022Z,48.20
2018-06-17T21:22:46.495Z,48.20
2018-06-17T21:25:19.902Z,48.20
2018-06-17T21:27:50.710Z,48.20
2018-06-17T21:30:19.042Z,48.20
2018-06-17T21:32:47.118Z,48.20
2018-06-17T21:35:15.743Z,48.20
2018-06-17T21:37:44.027Z,48.10
2018-06-17T21:40:12.130Z,48.10
2018-06-17T21:42:40.723Z,48.10
2018-06-17T21:45:09.159Z,48.10
2018-06-17T21:47:37.230Z,48.10
2018-06-17T21:50:05.310Z,48.60
2018-06-17T21:52:33.418Z,48.00
2018-06-17T21:55:01.523Z,48.70
2018-06-17T21:57:29.629Z,48.00
2018-06-17T21:59:57.698Z,48.00
2018-06-17T22:02:25.784Z,48.00
2018-06-17T22:04:53.873Z,48.10
2018-06-17T22:07:21.950Z,48.10
2018-06-17T22:09:55.607Z,48.10
2018-06-17T22:12:29.265Z,48.00
2018-06-17T22:15:02.863Z,48.10
2018-06-17T22:17:36.365Z,48.10
2018-06-17T22:20:04.536Z,48.10
2018-06-17T22:22:32.646Z,48.10
2018-06-17T22:25:00.715Z,48.10
2018-06-17T22:27:28.785Z,48.10
2018-06-17T22:29:56.858Z,48.10
2018-06-17T22:32:24.926Z,48.70
2018-06-17T22:34:53.004Z,48.00
2018-06-17T22:37:21.719Z,47.80
2018-06-17T22:39:49.794Z,48.50
2018-06-17T22:42:17.856Z,47.30
2018-06-17T22:44:45.934Z,47.20
2018-06-17T22:47:18.300Z,47.60
2018-06-17T22:49:46.350Z,47.50
2018-06-17T22:52:14.412Z,46.90
2018-06-17T22:54:49.054Z,46.30
2018-06-17T22:57:22.518Z,47.50
2018-06-17T23:00:53.990Z,47.40
2018-06-17T23:06:01.207Z,48.30
2018-06-17T23:08:34.841Z,48.40
2018-06-17T23:11:02.894Z,47.60
2018-06-17T23:13:30.959Z,48.20
2018-06-17T23:15:59.014Z,48.20
2018-06-17T23:18:27.070Z,48.00
2018-06-17T23:20:55.134Z,48.80
2018-06-17T23:23:23.204Z,48.70
2018-06-17T23:25:51.275Z,48.80
2018-06-17T23:28:19.354Z,49.30
2018-06-17T23:30:47.475Z,49.10
2018-06-17T23:33:15.526Z,49.40
2018-06-17T23:35:43.595Z,49.70
2018-06-17T23:38:11.719Z,49.30
2018-06-17T23:40:39.794Z,49.00
2018-06-17T23:43:07.874Z,49.10
2018-06-17T23:45:40.215Z,48.60
2018-06-17T23:48:13.616Z,48.30
2018-06-17T23:50:47.254Z,48.10
2018-06-17T23:53:20.751Z,48.00
2018-06-17T23:55:54.478Z,47.80
2018-06-17T23:58:22.562Z,47.70
